Time;durP1;ratioP1;P1;durP2;ratioP2;P2;SDS_P1;SDS_P2;PMS_P1;PMS_P2;Temp;Humidity;BMP_temperature;BMP_pressure;BME280_temperature;BME280_humidity;BME280_pressure;Samples;Min_cycle;Max_cycle;Signal;HPM_P1;HPM_P2
2023/08/15 00:04:28;;;;;;;6.63;3.05;;;;;;;21.62;76.39;101110.31;15720733;28;20131;-50
2023/08/15 00:12:03;;;;;;;9.02;2.65;;;;;;;21.62;76.79;101104.84;15713241;28;20047;-50
2023/08/15 00:19:36;;;;;;;8.85;2.65;;;;;;;21.69;76.18;101109.22;15805128;28;20136;-50
2023/08/15 00:27:11;;;;;;;4.40;2.20;;;;;;;20.19;82.23;101198.28;15804526;28;20044;-53
2023/08/15 00:34:44;;;;;;;8.70;1.90;;;;;;;20.51;81.32;101139.06;15786224;28;20040;-49
2023/08/15 00:42:19;;;;;;;4.40;1.80;;;;;;;20.90;79.51;101135.94;15785848;28;20040;-51
2023/08/15 00:49:53;;;;;;;6.32;2.15;;;;;;;21.27;77.82;101107.59;15785053;28;20074;-50
2023/08/15 00:57:28;;;;;;;2.90;1.75;;;;;;;21.37;77.10;101110.34;15785192;28;20060;-52
2023/08/15 01:05:01;;;;;;;5.75;2.13;;;;;;;21.58;76.29;101097.47;15784511;28;20128;-50
2023/08/15 01:12:44;;;;;;;3.58;2.13;;;;;;;21.26;76.73;101073.97;15751456;28;20083;-47
2023/08/15 01:20:27;;;;;;;4.90;2.50;;;;;;;21.23;77.58;101065.53;15717906;28;20048;-50
2023/08/15 01:28:01;;;;;;;5.00;2.50;;;;;;;21.12;77.40;101060.09;15715149;28;20033;-51
2023/08/15 01:35:39;;;;;;;5.35;2.80;;;;;;;21.32;76.34;101064.75;15738815;28;20045;-49
2023/08/15 01:43:16;;;;;;;3.85;2.80;;;;;;;20.93;77.33;101039.03;15715829;28;20102;-49
2023/08/15 01:50:52;;;;;;;8.27;3.28;;;;;;;21.02;76.82;101045.59;15730523;28;20049;-49
2023/08/15 01:58:26;;;;;;;6.25;3.50;;;;;;;21.05;77.26;101045.06;15700649;28;20494;-49
2023/08/15 02:05:59;;;;;;;7.45;3.88;;;;;;;21.21;76.62;101038.50;15713224;28;20045;-49
2023/08/15 02:13:33;;;;;;;;;;;;;;;21.11;76.43;101027.59;15742954;28;20067;-51
2023/08/15 02:21:07;;;;;;;8.50;4.13;;;;;;;21.35;75.26;101023.22;15782649;28;20285;-48
2023/08/15 02:28:41;;;;;;;6.43;4.10;;;;;;;21.21;75.21;101007.66;15770908;28;20044;-49
2023/08/15 02:36:14;;;;;;;7.07;4.03;;;;;;;21.08;76.00;100993.47;15776445;28;20056;-49
2023/08/15 02:43:49;;;;;;;7.70;4.50;;;;;;;21.14;75.35;100986.09;15792810;28;20040;-49
2023/08/15 02:51:22;;;;;;;7.68;3.88;;;;;;;20.96;75.78;100978.47;15809985;28;20081;-52
2023/08/15 02:58:57;;;;;;;5.60;3.05;;;;;;;20.92;75.57;100986.38;15792214;28;20093;-51
2023/08/15 03:06:30;;;;;;;6.95;4.78;;;;;;;21.01;75.44;100989.38;15791013;22;20110;-51
2023/08/15 03:14:05;;;;;;;5.93;3.95;;;;;;;20.88;76.23;100993.47;15751246;28;20127;-54
2023/08/15 03:21:38;;;;;;;7.72;5.47;;;;;;;20.99;75.80;101005.22;15785403;28;20471;-54
2023/08/15 03:29:13;;;;;;;7.07;5.10;;;;;;;20.79;76.55;101023.19;15784985;28;20044;-52
2023/08/15 03:36:46;;;;;;;9.50;7.15;;;;;;;20.56;76.65;101034.63;15767208;28;20048;-56
2023/08/15 03:44:20;;;;;;;49.20;9.00;;;;;;;20.21;77.68;101040.78;15801839;28;20040;-54
2023/08/15 03:51:54;;;;;;;18.58;8.82;;;;;;;19.98;79.41;101045.59;15783125;28;20512;-52
2023/08/15 03:59:29;;;;;;;14.40;8.88;;;;;;;20.38;77.48;101047.66;15766174;28;20052;-54
2023/08/15 04:07:05;;;;;;;11.55;8.80;;;;;;;20.59;76.09;101056.72;15765361;28;20051;-53
2023/08/15 04:14:40;;;;;;;13.32;8.55;;;;;;;20.51;75.81;101070.88;15748209;28;20039;-52
2023/08/15 04:22:13;;;;;;;10.50;7.22;;;;;;;20.62;75.71;101090.84;15718751;28;20040;-54
2023/08/15 04:29:48;;;;;;;10.88;8.25;;;;;;;20.38;76.12;101095.91;15718207;28;20041;-52
2023/08/15 04:37:21;;;;;;;11.80;7.95;;;;;;;20.59;75.38;101097.63;15734613;28;20044;-54
2023/08/15 04:44:55;;;;;;;12.90;9.90;;;;;;;20.34;77.15;101111.16;15718076;28;20082;-55
2023/08/15 04:52:29;;;;;;;14.82;10.27;;;;;;;20.74;76.11;101096.84;15717533;28;20041;-54
2023/08/15 05:00:08;;;;;;;15.25;10.38;;;;;;;20.61;77.06;101105.53;15750235;28;20036;-52
2023/08/15 05:07:44;;;;;;;10.90;8.75;;;;;;;20.70;77.08;101106.66;15716732;28;20572;-53
2023/08/15 05:15:18;;;;;;;9.75;7.50;;;;;;;20.47;78.89;101105.25;15754962;28;20141;-54
2023/08/15 05:22:52;;;;;;;12.05;6.50;;;;;;;20.61;78.66;101119.19;15778392;28;20119;-53
2023/08/15 05:30:26;;;;;;;8.38;6.78;;;;;;;21.22;76.86;101113.88;15778244;28;20052;-50
2023/08/15 05:37:59;;;;;;;8.73;6.40;;;;;;;21.15;77.44;101116.03;15778758;28;20335;-52
2023/08/15 05:45:33;;;;;;;8.98;6.45;;;;;;;21.67;75.69;101120.41;15778436;28;20040;-59
2023/08/15 05:53:06;;;;;;;8.45;5.45;;;;;;;21.45;75.55;101131.66;15778243;28;20043;-56
2023/08/15 06:00:42;;;;;;;8.10;5.28;;;;;;;21.55;75.24;101128.91;15795740;28;20083;-51
2023/08/15 06:08:15;;;;;;;5.95;4.68;;;;;;;21.63;74.91;101122.88;15807553;28;20040;-52
2023/08/15 06:15:51;;;;;;;6.05;4.30;;;;;;;21.98;72.38;101121.19;15763556;28;20047;-52
2023/08/15 06:23:24;;;;;;;6.85;4.63;;;;;;;22.85;70.98;101113.47;15725789;28;20546;-53
2023/08/15 06:30:59;;;;;;;8.25;5.13;;;;;;;22.97;72.39;101109.59;15743222;28;20109;-51
2023/08/15 06:38:31;;;;;;;9.60;4.22;;;;;;;23.16;70.92;101124.22;15725441;28;20052;-53
2023/08/15 06:46:06;;;;;;;7.72;4.47;;;;;;;23.25;69.80;101138.13;15758032;28;20369;-56
2023/08/15 06:53:41;;;;;;;7.65;4.30;;;;;;;23.48;69.47;101133.84;15741782;28;20123;-55
2023/08/15 07:01:16;;;;;;;7.03;4.03;;;;;;;23.65;68.51;101120.59;15756779;28;20532;-55
2023/08/15 07:08:49;;;;;;;6.00;3.92;;;;;;;24.08;68.82;101107.78;15741360;28;20514;-59
2023/08/15 07:16:24;;;;;;;6.47;3.80;;;;;;;24.48;66.76;101118.56;15801981;28;20500;-55
2023/08/15 07:23:58;;;;;;;7.45;4.00;;;;;;;24.41;66.51;101116.19;15786306;28;20050;-55
2023/08/15 07:31:32;;;;;;;7.05;3.95;;;;;;;25.49;63.13;101110.75;15802294;28;20123;-53
2023/08/15 07:39:06;;;;;;;7.13;3.45;;;;;;;26.14;61.63;101115.34;15784213;28;20063;-60
2023/08/15 07:46:40;;;;;;;5.32;3.10;;;;;;;26.62;60.22;101114.91;15783342;28;20115;-60
2023/08/15 07:54:15;;;;;;;5.63;3.72;;;;;;;25.91;60.50;101119.94;15783373;28;20036;-60
2023/08/15 08:01:49;;;;;;;7.18;3.70;;;;;;;25.84;60.19;101125.84;15783451;28;20048;-60
2023/08/15 08:09:23;;;;;;;6.45;3.88;;;;;;;26.33;59.35;101132.56;15801036;28;20097;-61
2023/08/15 08:16:57;;;;;;;8.95;4.03;;;;;;;26.97;59.45;101132.59;15729635;28;20120;-61
2023/08/15 08:24:30;;;;;;;5.95;4.28;;;;;;;27.43;57.62;101140.59;15736337;28;20493;-62
2023/08/15 08:32:05;;;;;;;5.38;4.15;;;;;;;27.44;59.09;101150.50;15702453;28;20435;-61
2023/08/15 08:39:39;;;;;;;7.97;4.97;;;;;;;28.34;55.34;101168.81;15718079;28;20105;-61
2023/08/15 08:47:13;;;;;;;5.20;4.60;;;;;;;27.90;56.78;101176.13;15751713;28;20048;-62
2023/08/15 08:54:47;;;;;;;6.43;4.60;;;;;;;28.41;56.35;101177.50;15715259;28;20389;-61
2023/08/15 09:02:22;;;;;;;12.07;4.30;;;;;;;28.81;55.91;101181.00;15733760;28;20040;-62
2023/08/15 09:09:56;;;;;;;7.43;4.22;;;;;;;28.87;56.24;101176.16;15736002;28;20065;-59
2023/08/15 09:17:32;;;;;;;8.23;5.28;;;;;;;27.59;60.64;101181.56;15792095;28;20067;-63
2023/08/15 09:25:06;;;;;;;6.85;5.03;;;;;;;27.16;60.00;101163.59;15796908;28;20067;-56
2023/08/15 09:32:42;;;;;;;10.13;5.55;;;;;;;27.46;61.32;101174.97;15762351;28;20063;-61
2023/08/15 09:40:19;;;;;;;7.47;4.95;;;;;;;28.48;55.99;101164.84;15789068;28;20078;-58
2023/08/15 09:47:55;;;;;;;9.80;5.55;;;;;;;28.41;55.83;101159.00;15790493;28;20044;-58
2023/08/15 09:55:29;;;;;;;9.52;5.60;;;;;;;28.12;58.53;101162.28;15773747;28;20408;-56
2023/08/15 10:03:19;;;;;;;8.05;5.35;;;;;;;27.66;56.76;101140.59;15808115;28;20080;-59
2023/08/15 10:10:53;;;;;;;9.88;5.90;;;;;;;27.68;57.32;101143.81;15771194;28;20086;-59
2023/08/15 10:18:27;;;;;;;7.05;5.57;;;;;;;27.29;58.18;101128.81;15726962;28;20044;-60
2023/08/15 10:26:01;;;;;;;12.05;6.10;;;;;;;27.71;58.41;101110.94;15744145;28;20056;-61
2023/08/15 10:33:38;;;;;;;13.25;6.20;;;;;;;27.65;58.16;101092.03;15725641;28;20184;-62
2023/08/15 10:41:15;;;;;;;7.25;6.53;;;;;;;27.63;59.72;101069.50;15743210;28;20136;-59
2023/08/15 10:48:53;;;;;;;7.15;5.90;;;;;;;29.45;53.30;101095.47;15741301;28;20041;-58
2023/08/15 10:56:29;;;;;;;8.65;5.72;;;;;;;30.81;51.50;101111.31;15724528;28;20041;-62
2023/08/15 11:04:04;;;;;;;9.00;5.82;;;;;;;30.95;50.71;101120.16;15741717;28;20045;-60
2023/08/15 11:11:38;;;;;;;11.30;5.53;;;;;;;30.92;50.59;101110.56;15749808;28;20514;-60
2023/08/15 11:19:17;;;;;;;11.02;5.05;;;;;;;31.22;51.88;101118.78;15786210;28;20038;-61
2023/08/15 11:26:53;;;;;;;7.43;5.05;;;;;;;31.95;49.09;101127.34;15803185;28;20412;-61
2023/08/15 11:34:29;;;;;;;7.97;4.43;;;;;;;32.04;46.62;101118.06;15802822;28;20044;-61
2023/08/15 11:42:02;;;;;;;8.80;5.00;;;;;;;31.68;47.45;101116.88;15784061;28;20229;-62
2023/08/15 11:49:38;;;;;;;8.27;5.32;;;;;;;31.53;46.41;101118.34;15802506;28;20044;-59
2023/08/15 11:57:13;;;;;;;8.05;4.82;;;;;;;32.24;45.86;101115.19;15783353;28;20048;-62
2023/08/15 12:04:49;;;;;;;6.38;3.70;;;;;;;33.24;42.46;101112.66;15799087;28;20056;-63
2023/08/15 12:12:24;;;;;;;9.20;4.10;;;;;;;32.72;44.19;101115.47;15786070;28;20056;-63
2023/08/15 12:19:59;;;;;;;8.02;3.65;;;;;;;32.92;41.75;101108.97;15736980;28;20075;-62
2023/08/15 12:27:31;;;;;;;5.03;3.60;;;;;;;33.11;41.79;101108.31;15736605;28;20420;-63
2023/08/15 12:35:06;;;;;;;6.60;3.60;;;;;;;32.75;43.23;101107.25;15736214;28;20048;-62
2023/08/15 12:42:39;;;;;;;8.90;3.85;;;;;;;32.74;43.27;101105.66;15718328;28;20220;-62
2023/08/15 12:50:14;;;;;;;5.57;3.65;;;;;;;33.97;43.08;101103.06;15736012;28;20044;-63
2023/08/15 12:57:47;;;;;;;9.32;3.75;;;;;;;33.85;42.49;101100.34;15717868;28;20508;-60
2023/08/15 13:05:22;;;;;;;4.40;3.42;;;;;;;34.01;40.43;101090.03;15735292;28;20554;-61
2023/08/15 13:12:54;;;;;;;6.65;3.45;;;;;;;34.88;38.62;101085.25;15753451;28;20048;-63
2023/08/15 13:20:30;;;;;;;7.13;3.38;;;;;;;34.04;41.37;101082.13;15796653;28;20032;-63
2023/08/15 13:28:04;;;;;;;7.53;3.50;;;;;;;35.69;36.63;101084.41;15796809;28;20047;-63
2023/08/15 13:35:39;;;;;;;5.75;3.00;;;;;;;35.52;36.53;101078.13;15779095;28;20048;-63
2023/08/15 13:43:13;;;;;;;5.75;3.30;;;;;;;33.30;39.21;101079.03;15796459;28;20044;-63
2023/08/15 13:50:48;;;;;;;5.18;3.90;;;;;;;33.70;39.30;101081.66;15778411;28;20127;-61
2023/08/15 13:58:21;;;;;;;6.35;3.92;;;;;;;33.28;40.20;101068.22;15760893;28;20525;-63
2023/08/15 14:05:59;;;;;;;8.73;4.05;;;;;;;32.78;40.79;101075.16;15795482;28;20230;-61
2023/08/15 14:13:33;;;;;;;11.55;6.80;;;;;;;32.73;41.31;101067.06;15771351;28;20048;-59
2023/08/15 14:21:10;;;;;;;8.57;4.20;;;;;;;32.74;42.02;101071.47;15732749;28;20077;-62
2023/08/15 14:28:43;;;;;;;9.35;4.22;;;;;;;32.55;42.53;101074.06;15744103;28;20051;-62
2023/08/15 14:36:17;;;;;;;8.90;4.57;;;;;;;32.44;40.79;101070.97;15742123;28;20416;-60
2023/08/15 14:43:50;;;;;;;6.85;4.05;;;;;;;31.81;41.97;101060.22;15725809;28;20104;-61
2023/08/15 14:51:24;;;;;;;5.38;4.50;;;;;;;31.90;42.33;101058.16;15743152;28;20540;-63
2023/08/15 14:58:57;;;;;;;4.53;3.92;;;;;;;31.57;42.20;101058.22;15740218;28;20072;-64
2023/08/15 15:06:32;;;;;;;6.00;3.65;;;;;;;31.68;42.02;101056.63;15799702;22;20043;-55
2023/08/15 15:14:06;;;;;;;5.60;4.28;;;;;;;31.30;43.60;101062.44;15917845;27;20093;-56
2023/08/15 15:21:41;;;;;;;7.93;4.03;;;;;;;31.87;42.07;101058.84;15863149;28;20043;-56
2023/08/15 15:29:14;;;;;;;4.72;4.22;;;;;;;31.96;42.95;101070.66;15853904;28;20130;-56
2023/08/15 15:36:49;;;;;;;4.15;3.70;;;;;;;32.10;42.28;101075.03;15853580;28;20130;-53
2023/08/15 15:44:22;;;;;;;5.88;4.03;;;;;;;31.87;45.86;101072.72;15871119;28;20116;-56
2023/08/15 15:51:56;;;;;;;5.72;4.10;;;;;;;31.32;46.34;101082.31;15871172;28;20044;-55
2023/08/15 15:59:29;;;;;;;6.32;4.60;;;;;;;31.40;48.34;101100.03;15870197;28;20065;-56
2023/08/15 16:07:04;;;;;;;6.57;3.85;;;;;;;30.72;49.30;101105.84;15870082;28;20032;-56
2023/08/15 16:14:37;;;;;;;6.57;3.90;;;;;;;30.57;49.67;101123.03;15818781;28;20056;-56
2023/08/15 16:22:17;;;;;;;4.95;3.15;;;;;;;30.30;48.37;101121.56;15805745;28;20056;-58
2023/08/15 16:29:51;;;;;;;4.05;2.92;;;;;;;30.30;49.82;101136.22;15786419;28;20408;-55
2023/08/15 16:37:25;;;;;;;5.35;3.20;;;;;;;30.17;50.40;101128.94;15787562;28;20119;-53
2023/08/15 16:44:58;;;;;;;7.20;3.35;;;;;;;29.88;51.79;101124.16;15804058;28;20101;-56
2023/08/15 16:52:33;;;;;;;6.15;3.08;;;;;;;29.77;51.82;101126.50;15786381;28;20048;-55
2023/08/15 17:00:08;;;;;;;4.03;2.75;;;;;;;29.76;51.78;101129.59;15804700;28;20406;-56
2023/08/15 17:07:43;;;;;;;5.25;3.08;;;;;;;29.51;53.24;101129.28;15804346;28;20522;-56
2023/08/15 17:15:16;;;;;;;4.53;3.10;;;;;;;29.39;51.73;101121.69;15818746;28;20479;-54
2023/08/15 17:22:50;;;;;;;4.55;2.90;;;;;;;29.07;53.57;101114.72;15848328;28;20047;-54
2023/08/15 17:30:24;;;;;;;3.88;3.00;;;;;;;28.84;55.30;101133.38;15848137;28;20040;-56
2023/08/15 17:37:58;;;;;;;4.30;3.30;;;;;;;28.80;55.39;101140.69;15865940;28;20097;-55
2023/08/15 17:45:32;;;;;;;8.35;3.40;;;;;;;28.66;56.26;101143.59;15865667;28;20075;-56
2023/08/15 17:53:07;;;;;;;6.18;3.28;;;;;;;28.70;55.45;101165.88;15865785;28;20056;-52
2023/08/15 18:00:41;;;;;;;5.90;3.35;;;;;;;28.52;56.92;101178.81;15874409;28;20050;-57
2023/08/15 18:08:16;;;;;;;4.70;3.42;;;;;;;28.31;57.07;101156.50;15877145;28;20058;-51
2023/08/15 18:15:49;;;;;;;4.95;3.40;;;;;;;28.34;59.54;101201.97;15825064;28;20485;-54
2023/08/15 18:23:24;;;;;;;6.18;3.45;;;;;;;28.34;58.07;101207.47;15812992;28;20071;-53
2023/08/15 18:30:58;;;;;;;8.75;3.80;;;;;;;28.13;58.15;101185.97;15794808;28;20055;-52
2023/08/15 18:38:32;;;;;;;6.15;3.72;;;;;;;28.00;57.75;101191.59;15794594;28;20040;-51
2023/08/15 18:46:05;;;;;;;5.15;3.70;;;;;;;27.85;58.15;101212.94;15813095;28;20393;-51
2023/08/15 18:53:41;;;;;;;4.00;3.40;;;;;;;27.64;58.55;101225.56;15813897;28;20066;-52
2023/08/15 19:01:14;;;;;;;7.60;3.92;;;;;;;27.31;59.84;101241.53;15812649;28;20400;-52
2023/08/15 19:08:48;;;;;;;5.05;3.88;;;;;;;27.24;60.40;101232.88;15791861;28;20059;-54
2023/08/15 19:16:21;;;;;;;7.63;4.20;;;;;;;27.26;60.30;101244.41;15852675;28;20156;-55
2023/08/15 19:23:56;;;;;;;7.13;4.10;;;;;;;27.34;59.01;101252.75;15872803;28;20044;-55
2023/08/15 19:31:29;;;;;;;6.57;3.83;;;;;;;27.08;60.67;101254.41;15873177;28;20048;-56
2023/08/15 19:39:03;;;;;;;5.50;4.07;;;;;;;26.56;61.55;101264.84;15837623;28;20456;-54
2023/08/15 19:46:37;;;;;;;7.22;3.30;;;;;;;25.80;62.83;101259.56;15871699;28;20534;-52
2023/08/15 19:54:11;;;;;;;6.22;2.70;;;;;;;25.31;63.99;101244.31;15870493;28;20073;-53
2023/08/15 20:01:44;;;;;;;5.43;2.45;;;;;;;25.10;64.18;101267.72;15869744;28;20135;-53
2023/08/15 20:09:18;;;;;;;2.90;1.70;;;;;;;24.75;64.35;101283.47;15869191;28;20086;-51
2023/08/15 20:16:51;;;;;;;2.30;1.30;;;;;;;24.24;64.95;101294.13;15798712;28;20181;-52
2023/08/15 20:24:26;;;;;;;3.40;1.20;;;;;;;24.52;64.27;101306.25;15804600;28;20044;-54
2023/08/15 20:32:01;;;;;;;5.05;1.45;;;;;;;24.28;65.02;101292.47;15805417;28;20052;-54
2023/08/15 20:39:36;;;;;;;3.80;1.30;;;;;;;24.14;64.88;101295.03;15805256;28;20048;-57
2023/08/15 20:47:09;;;;;;;5.95;1.70;;;;;;;23.86;65.98;101294.72;15804528;28;20121;-55
2023/08/15 20:54:47;;;;;;;3.80;1.67;;;;;;;23.82;66.82;101299.13;15805477;28;20459;-54
2023/08/15 21:02:20;;;;;;;5.72;2.22;;;;;;;23.39;67.72;101308.97;15920968;27;20096;-51
2023/08/15 21:09:54;;;;;;;4.38;2.50;;;;;;;23.49;67.49;101316.31;15860265;22;20072;-69
2023/08/15 21:17:29;;;;;;;3.47;2.40;;;;;;;23.60;67.06;101324.22;15801261;28;20068;-70
2023/08/15 21:25:04;;;;;;;6.10;3.40;;;;;;;23.19;68.99;101322.78;15801460;28;20060;-68
2023/08/15 21:32:38;;;;;;;9.55;3.58;;;;;;;22.92;71.15;101323.97;15806145;28;20052;-69
2023/08/15 21:40:14;;;;;;;6.00;3.88;;;;;;;22.76;72.23;101320.44;15824049;28;20418;-70
2023/08/15 21:47:47;;;;;;;5.90;3.85;;;;;;;23.44;69.71;101325.38;15823359;28;20123;-71
2023/08/15 21:55:23;;;;;;;7.00;4.35;;;;;;;23.34;70.05;101320.78;15823401;28;20072;-70
2023/08/15 22:02:57;;;;;;;6.70;4.38;;;;;;;23.54;68.99;101322.59;15820943;28;20075;-72
2023/08/15 22:10:46;;;;;;;7.97;4.30;;;;;;;23.39;69.74;101326.22;15820834;28;20059;-70
2023/08/15 22:18:19;;;;;;;6.70;4.20;;;;;;;24.01;67.60;101328.59;15820506;28;20036;-70
2023/08/15 22:25:53;;;;;;;5.80;4.07;;;;;;;23.94;68.27;101337.19;15821036;28;20117;-69
2023/08/15 22:33:26;;;;;;;5.35;3.83;;;;;;;23.37;69.32;101352.28;15820204;28;20062;-70
2023/08/15 22:41:00;;;;;;;6.85;4.20;;;;;;;23.43;69.29;101373.88;15821214;28;20140;-70
2023/08/15 22:48:33;;;;;;;5.03;3.90;;;;;;;23.37;69.53;101368.72;15811715;28;20070;-70
2023/08/15 22:56:08;;;;;;;6.28;4.07;;;;;;;23.24;70.04;101385.75;15812566;28;20040;-70
2023/08/15 23:03:41;;;;;;;6.80;4.57;;;;;;;23.19;70.32;101392.06;15808825;28;20050;-69
2023/08/15 23:19:09;;;;;;;6.57;4.80;;;;;;;23.35;69.48;101390.91;15154703;26;20043;-54
2023/08/15 23:26:47;;;;;;;6.10;4.35;;;;;;;22.92;71.71;101408.84;15879948;27;20148;-59
2023/08/15 23:34:22;;;;;;;8.18;4.93;;;;;;;23.09;70.43;101411.28;15447130;28;20115;-51
2023/08/15 23:41:55;;;;;;;8.73;5.10;;;;;;;23.28;69.32;101404.09;14911098;29;20142;-55
2023/08/15 23:49:29;;;;;;;6.60;4.68;;;;;;;23.47;69.13;101408.97;14910880;29;20504;-55
2023/08/15 23:57:03;;;;;;;7.35;4.47;;;;;;;22.65;71.45;101433.75;14923320;29;20061;-58
